sensor_id;sensor_type;location;lat;lon;timestamp;P1;durP1;ratioP1;P2;durP2;ratioP2
3054;SDS011;1537;52.018;8.542;2023-04-02T00:01:38;6.10;;;3.90;;
3054;SDS011;1537;52.018;8.542;2023-04-02T00:05:21;5.70;;;3.70;;
3054;SDS011;1537;52.018;8.542;2023-04-02T00:09:21;7.17;;;4.03;;
3054;SDS011;1537;52.018;8.542;2023-04-02T00:12:59;8.10;;;4.30;;
3054;SDS011;1537;52.018;8.542;2023-04-02T00:16:24;7.00;;;3.97;;
3054;SDS011;1537;52.018;8.542;2023-04-02T00:19:50;5.97;;;3.90;;
3054;SDS011;1537;52.018;8.542;2023-04-02T00:23:19;7.10;;;3.83;;
3054;SDS011;1537;52.018;8.542;2023-04-02T00:26:47;7.87;;;4.37;;
3054;SDS011;1537;52.018;8.542;2023-04-02T00:30:12;8.40;;;3.53;;
3054;SDS011;1537;52.018;8.542;2023-04-02T00:33:41;8.03;;;4.50;;
3054;SDS011;1537;52.018;8.542;2023-04-02T00:37:06;6.37;;;4.10;;
3054;SDS011;1537;52.018;8.542;2023-04-02T00:40:39;5.73;;;3.70;;
3054;SDS011;1537;52.018;8.542;2023-04-02T00:44:06;5.07;;;3.70;;
3054;SDS011;1537;52.018;8.542;2023-04-02T00:47:35;4.73;;;3.00;;
3054;SDS011;1537;52.018;8.542;2023-04-02T00:51:10;6.50;;;4.30;;
3054;SDS011;1537;52.018;8.542;2023-04-02T00:54:38;5.00;;;2.90;;
3054;SDS011;1537;52.018;8.542;2023-04-02T00:58:11;5.20;;;3.47;;
3054;SDS011;1537;52.018;8.542;2023-04-02T01:01:43;8.30;;;3.90;;
3054;SDS011;1537;52.018;8.542;2023-04-02T01:05:19;5.23;;;3.70;;
3054;SDS011;1537;52.018;8.542;2023-04-02T01:08:53;7.70;;;4.57;;
3054;SDS011;1537;52.018;8.542;2023-04-02T01:12:37;5.23;;;2.90;;
3054;SDS011;1537;52.018;8.542;2023-04-02T01:16:09;6.33;;;3.10;;
3054;SDS011;1537;52.018;8.542;2023-04-02T01:19:52;6.50;;;4.00;;
3054;SDS011;1537;52.018;8.542;2023-04-02T01:23:42;5.50;;;4.03;;
3054;SDS011;1537;52.018;8.542;2023-04-02T01:27:19;8.17;;;3.87;;
3054;SDS011;1537;52.018;8.542;2023-04-02T01:30:52;7.03;;;4.93;;
3054;SDS011;1537;52.018;8.542;2023-04-02T01:34:21;9.20;;;4.23;;
3054;SDS011;1537;52.018;8.542;2023-04-02T01:37:51;7.27;;;4.70;;
3054;SDS011;1537;52.018;8.542;2023-04-02T01:41:21;7.17;;;4.53;;
3054;SDS011;1537;52.018;8.542;2023-04-02T01:44:52;7.63;;;4.40;;
3054;SDS011;1537;52.018;8.542;2023-04-02T01:48:27;6.23;;;4.23;;
3054;SDS011;1537;52.018;8.542;2023-04-02T01:51:53;8.27;;;4.20;;
3054;SDS011;1537;52.018;8.542;2023-04-02T01:55:27;7.90;;;5.70;;
3054;SDS011;1537;52.018;8.542;2023-04-02T01:58:59;9.07;;;6.07;;
3054;SDS011;1537;52.018;8.542;2023-04-02T02:02:33;8.60;;;5.70;;
3054;SDS011;1537;52.018;8.542;2023-04-02T02:06:00;11.50;;;5.70;;
3054;SDS011;1537;52.018;8.542;2023-04-02T02:09:28;9.40;;;6.27;;
3054;SDS011;1537;52.018;8.542;2023-04-02T02:12:56;8.60;;;6.40;;
3054;SDS011;1537;52.018;8.542;2023-04-02T02:16:21;10.53;;;5.47;;
3054;SDS011;1537;52.018;8.542;2023-04-02T02:19:50;8.40;;;6.20;;
3054;SDS011;1537;52.018;8.542;2023-04-02T02:23:19;13.33;;;7.33;;
3054;SDS011;1537;52.018;8.542;2023-04-02T02:27:00;10.33;;;6.37;;
3054;SDS011;1537;52.018;8.542;2023-04-02T02:30:43;12.53;;;6.90;;
3054;SDS011;1537;52.018;8.542;2023-04-02T02:34:11;11.97;;;7.27;;
3054;SDS011;1537;52.018;8.542;2023-04-02T02:37:42;13.67;;;6.77;;
3054;SDS011;1537;52.018;8.542;2023-04-02T02:41:14;15.03;;;7.70;;
3054;SDS011;1537;52.018;8.542;2023-04-02T02:44:45;10.23;;;6.17;;
3054;SDS011;1537;52.018;8.542;2023-04-02T02:48:12;16.53;;;7.27;;
3054;SDS011;1537;52.018;8.542;2023-04-02T02:51:42;9.10;;;5.27;;
3054;SDS011;1537;52.018;8.542;2023-04-02T02:55:16;13.90;;;6.50;;
3054;SDS011;1537;52.018;8.542;2023-04-02T02:58:59;12.73;;;7.43;;
3054;SDS011;1537;52.018;8.542;2023-04-02T03:02:33;10.37;;;6.90;;
3054;SDS011;1537;52.018;8.542;2023-04-02T03:06:02;13.90;;;5.97;;
3054;SDS011;1537;52.018;8.542;2023-04-02T03:09:33;8.43;;;5.07;;
3054;SDS011;1537;52.018;8.542;2023-04-02T03:13:07;9.23;;;5.90;;
3054;SDS011;1537;52.018;8.542;2023-04-02T03:16:42;9.20;;;5.50;;
3054;SDS011;1537;52.018;8.542;2023-04-02T03:20:12;10.93;;;5.87;;
3054;SDS011;1537;52.018;8.542;2023-04-02T03:23:41;9.03;;;5.50;;
3054;SDS011;1537;52.018;8.542;2023-04-02T03:27:09;13.60;;;6.03;;
3054;SDS011;1537;52.018;8.542;2023-04-02T03:30:39;8.53;;;4.67;;
3054;SDS011;1537;52.018;8.542;2023-04-02T03:34:15;9.47;;;4.20;;
3054;SDS011;1537;52.018;8.542;2023-04-02T03:37:50;9.20;;;4.43;;
3054;SDS011;1537;52.018;8.542;2023-04-02T03:41:20;14.70;;;4.80;;
3054;SDS011;1537;52.018;8.542;2023-04-02T03:44:50;7.77;;;4.00;;
3054;SDS011;1537;52.018;8.542;2023-04-02T03:48:19;7.70;;;3.93;;
3054;SDS011;1537;52.018;8.542;2023-04-02T03:51:53;7.97;;;4.43;;
3054;SDS011;1537;52.018;8.542;2023-04-02T03:55:23;7.90;;;4.70;;
3054;SDS011;1537;52.018;8.542;2023-04-02T03:58:51;9.03;;;5.30;;
3054;SDS011;1537;52.018;8.542;2023-04-02T04:02:26;10.90;;;5.83;;
3054;SDS011;1537;52.018;8.542;2023-04-02T04:06:01;12.90;;;4.90;;
3054;SDS011;1537;52.018;8.542;2023-04-02T04:09:32;8.13;;;5.60;;
3054;SDS011;1537;52.018;8.542;2023-04-02T04:13:02;6.93;;;4.67;;
3054;SDS011;1537;52.018;8.542;2023-04-02T04:16:28;6.27;;;3.70;;
3054;SDS011;1537;52.018;8.542;2023-04-02T04:19:58;8.27;;;3.93;;
3054;SDS011;1537;52.018;8.542;2023-04-02T04:23:30;6.43;;;4.17;;
3054;SDS011;1537;52.018;8.542;2023-04-02T04:27:04;6.67;;;4.13;;
3054;SDS011;1537;52.018;8.542;2023-04-02T04:30:42;13.83;;;3.70;;
3054;SDS011;1537;52.018;8.542;2023-04-02T04:34:15;8.63;;;4.13;;
3054;SDS011;1537;52.018;8.542;2023-04-02T04:37:46;10.83;;;3.63;;
3054;SDS011;1537;52.018;8.542;2023-04-02T04:41:20;6.17;;;4.07;;
3054;SDS011;1537;52.018;8.542;2023-04-02T04:44:50;8.63;;;3.30;;
3054;SDS011;1537;52.018;8.542;2023-04-02T04:48:21;8.13;;;2.50;;
3054;SDS011;1537;52.018;8.542;2023-04-02T04:51:52;5.63;;;3.17;;
3054;SDS011;1537;52.018;8.542;2023-04-02T04:55:22;8.63;;;3.37;;
3054;SDS011;1537;52.018;8.542;2023-04-02T04:58:54;7.90;;;3.43;;
3054;SDS011;1537;52.018;8.542;2023-04-02T05:02:28;7.20;;;4.03;;
3054;SDS011;1537;52.018;8.542;2023-04-02T05:06:00;8.10;;;3.67;;
3054;SDS011;1537;52.018;8.542;2023-04-02T05:09:35;7.30;;;3.90;;
3054;SDS011;1537;52.018;8.542;2023-04-02T05:13:06;7.60;;;3.70;;
3054;SDS011;1537;52.018;8.542;2023-04-02T05:16:37;7.67;;;3.17;;
3054;SDS011;1537;52.018;8.542;2023-04-02T05:20:10;9.90;;;4.30;;
3054;SDS011;1537;52.018;8.542;2023-04-02T05:23:44;10.13;;;3.93;;
3054;SDS011;1537;52.018;8.542;2023-04-02T05:27:22;8.20;;;4.10;;
3054;SDS011;1537;52.018;8.542;2023-04-02T05:30:53;8.03;;;3.87;;
3054;SDS011;1537;52.018;8.542;2023-04-02T05:34:24;10.47;;;3.97;;
3054;SDS011;1537;52.018;8.542;2023-04-02T05:37:52;7.63;;;4.30;;
3054;SDS011;1537;52.018;8.542;2023-04-02T05:41:20;6.80;;;3.80;;
3054;SDS011;1537;52.018;8.542;2023-04-02T05:44:55;9.83;;;4.13;;
3054;SDS011;1537;52.018;8.542;2023-04-02T05:48:29;6.97;;;4.47;;
3054;SDS011;1537;52.018;8.542;2023-04-02T05:51:59;6.57;;;3.20;;
3054;SDS011;1537;52.018;8.542;2023-04-02T05:55:33;5.50;;;3.17;;
3054;SDS011;1537;52.018;8.542;2023-04-02T05:59:02;5.93;;;3.50;;
3054;SDS011;1537;52.018;8.542;2023-04-02T06:02:31;7.60;;;4.40;;
3054;SDS011;1537;52.018;8.542;2023-04-02T06:06:00;6.00;;;3.23;;
3054;SDS011;1537;52.018;8.542;2023-04-02T06:09:30;9.23;;;3.93;;
3054;SDS011;1537;52.018;8.542;2023-04-02T06:13:01;8.50;;;4.10;;
3054;SDS011;1537;52.018;8.542;2023-04-02T06:16:33;7.43;;;4.83;;
3054;SDS011;1537;52.018;8.542;2023-04-02T06:19:59;5.40;;;3.37;;
3054;SDS011;1537;52.018;8.542;2023-04-02T06:23:30;5.90;;;3.87;;
3054;SDS011;1537;52.018;8.542;2023-04-02T06:27:01;12.40;;;4.53;;
3054;SDS011;1537;52.018;8.542;2023-04-02T06:30:30;7.23;;;3.67;;
3054;SDS011;1537;52.018;8.542;2023-04-02T06:33:58;7.37;;;3.63;;
3054;SDS011;1537;52.018;8.542;2023-04-02T06:37:24;5.53;;;2.80;;
3054;SDS011;1537;52.018;8.542;2023-04-02T06:41:09;6.17;;;4.10;;
3054;SDS011;1537;52.018;8.542;2023-04-02T06:44:51;7.77;;;3.97;;
3054;SDS011;1537;52.018;8.542;2023-04-02T06:48:35;7.20;;;4.20;;
3054;SDS011;1537;52.018;8.542;2023-04-02T06:52:01;7.60;;;4.10;;
3054;SDS011;1537;52.018;8.542;2023-04-02T06:55:30;6.03;;;3.67;;
3054;SDS011;1537;52.018;8.542;2023-04-02T06:58:56;6.57;;;3.97;;
3054;SDS011;1537;52.018;8.542;2023-04-02T07:02:23;14.23;;;5.83;;
3054;SDS011;1537;52.018;8.542;2023-04-02T07:05:55;5.73;;;3.33;;
3054;SDS011;1537;52.018;8.542;2023-04-02T07:09:19;5.47;;;4.00;;
3054;SDS011;1537;52.018;8.542;2023-04-02T07:12:48;5.63;;;3.47;;
3054;SDS011;1537;52.018;8.542;2023-04-02T07:16:13;10.07;;;4.73;;
3054;SDS011;1537;52.018;8.542;2023-04-02T07:19:39;9.00;;;3.77;;
3054;SDS011;1537;52.018;8.542;2023-04-02T07:23:06;5.43;;;2.83;;
3054;SDS011;1537;52.018;8.542;2023-04-02T07:26:31;4.87;;;3.37;;
3054;SDS011;1537;52.018;8.542;2023-04-02T07:29:54;5.00;;;2.80;;
3054;SDS011;1537;52.018;8.542;2023-04-02T07:33:19;5.70;;;2.90;;
3054;SDS011;1537;52.018;8.542;2023-04-02T07:36:44;5.77;;;2.90;;
3054;SDS011;1537;52.018;8.542;2023-04-02T07:43:42;6.53;;;3.70;;
3054;SDS011;1537;52.018;8.542;2023-04-02T07:47:05;6.80;;;2.97;;
3054;SDS011;1537;52.018;8.542;2023-04-02T07:50:31;5.40;;;2.80;;
3054;SDS011;1537;52.018;8.542;2023-04-02T07:53:55;5.73;;;2.90;;
3054;SDS011;1537;52.018;8.542;2023-04-02T07:57:20;4.67;;;3.30;;
3054;SDS011;1537;52.018;8.542;2023-04-02T08:00:43;5.80;;;2.53;;
3054;SDS011;1537;52.018;8.542;2023-04-02T08:04:08;6.10;;;3.10;;
3054;SDS011;1537;52.018;8.542;2023-04-02T08:07:39;5.33;;;2.80;;
3054;SDS011;1537;52.018;8.542;2023-04-02T08:11:04;5.47;;;2.63;;
3054;SDS011;1537;52.018;8.542;2023-04-02T08:14:29;5.40;;;2.57;;
3054;SDS011;1537;52.018;8.542;2023-04-02T08:17:53;7.33;;;3.00;;
3054;SDS011;1537;52.018;8.542;2023-04-02T08:21:17;5.50;;;3.37;;
3054;SDS011;1537;52.018;8.542;2023-04-02T08:24:41;5.03;;;2.90;;
3054;SDS011;1537;52.018;8.542;2023-04-02T08:28:05;4.50;;;2.90;;
3054;SDS011;1537;52.018;8.542;2023-04-02T08:31:30;4.93;;;2.40;;
3054;SDS011;1537;52.018;8.542;2023-04-02T08:34:54;6.10;;;3.40;;
3054;SDS011;1537;52.018;8.542;2023-04-02T08:38:18;5.67;;;3.67;;
3054;SDS011;1537;52.018;8.542;2023-04-02T08:41:44;6.13;;;3.20;;
3054;SDS011;1537;52.018;8.542;2023-04-02T08:45:18;5.70;;;2.80;;
3054;SDS011;1537;52.018;8.542;2023-04-02T08:48:50;4.93;;;2.70;;
3054;SDS011;1537;52.018;8.542;2023-04-02T08:52:20;5.80;;;2.70;;
3054;SDS011;1537;52.018;8.542;2023-04-02T08:55:47;6.33;;;2.57;;
3054;SDS011;1537;52.018;8.542;2023-04-02T08:59:18;6.57;;;3.43;;
3054;SDS011;1537;52.018;8.542;2023-04-02T09:02:51;4.73;;;2.60;;
3054;SDS011;1537;52.018;8.542;2023-04-02T09:06:19;6.53;;;3.10;;
3054;SDS011;1537;52.018;8.542;2023-04-02T09:09:45;9.13;;;3.17;;
3054;SDS011;1537;52.018;8.542;2023-04-02T09:13:13;7.67;;;3.67;;
3054;SDS011;1537;52.018;8.542;2023-04-02T09:16:43;4.93;;;3.17;;
3054;SDS011;1537;52.018;8.542;2023-04-02T09:20:12;4.73;;;2.63;;
3054;SDS011;1537;52.018;8.542;2023-04-02T09:23:40;5.20;;;2.80;;
3054;SDS011;1537;52.018;8.542;2023-04-02T09:27:09;5.73;;;3.10;;
3054;SDS011;1537;52.018;8.542;2023-04-02T09:30:42;5.00;;;3.17;;
3054;SDS011;1537;52.018;8.542;2023-04-02T09:34:29;4.37;;;2.43;;
3054;SDS011;1537;52.018;8.542;2023-04-02T09:38:09;6.00;;;3.20;;
3054;SDS011;1537;52.018;8.542;2023-04-02T09:41:41;4.67;;;2.77;;
3054;SDS011;1537;52.018;8.542;2023-04-02T09:45:18;8.47;;;2.97;;
3054;SDS011;1537;52.018;8.542;2023-04-02T09:48:44;5.37;;;2.80;;
3054;SDS011;1537;52.018;8.542;2023-04-02T09:52:18;4.60;;;3.00;;
3054;SDS011;1537;52.018;8.542;2023-04-02T09:55:47;4.50;;;3.03;;
3054;SDS011;1537;52.018;8.542;2023-04-02T09:59:14;5.73;;;2.50;;
3054;SDS011;1537;52.018;8.542;2023-04-02T10:02:39;10.67;;;3.93;;
3054;SDS011;1537;52.018;8.542;2023-04-02T10:06:05;4.07;;;2.10;;
3054;SDS011;1537;52.018;8.542;2023-04-02T10:09:31;6.47;;;2.40;;
3054;SDS011;1537;52.018;8.542;2023-04-02T10:12:58;5.63;;;2.20;;
3054;SDS011;1537;52.018;8.542;2023-04-02T10:16:25;4.73;;;2.07;;
3054;SDS011;1537;52.018;8.542;2023-04-02T10:19:55;5.37;;;2.30;;
3054;SDS011;1537;52.018;8.542;2023-04-02T10:23:23;4.87;;;2.33;;
3054;SDS011;1537;52.018;8.542;2023-04-02T10:26:52;4.77;;;2.30;;
3054;SDS011;1537;52.018;8.542;2023-04-02T10:30:23;13.53;;;3.40;;
3054;SDS011;1537;52.018;8.542;2023-04-02T10:33:55;4.73;;;2.63;;
3054;SDS011;1537;52.018;8.542;2023-04-02T10:37:30;8.70;;;2.90;;
3054;SDS011;1537;52.018;8.542;2023-04-02T10:41:21;5.03;;;2.53;;
3054;SDS011;1537;52.018;8.542;2023-04-02T10:44:53;4.10;;;2.07;;
3054;SDS011;1537;52.018;8.542;2023-04-02T10:48:23;7.33;;;2.67;;
3054;SDS011;1537;52.018;8.542;2023-04-02T10:51:56;5.50;;;2.80;;
3054;SDS011;1537;52.018;8.542;2023-04-02T10:55:24;7.60;;;2.47;;
3054;SDS011;1537;52.018;8.542;2023-04-02T10:58:52;5.53;;;2.70;;
3054;SDS011;1537;52.018;8.542;2023-04-02T11:02:26;6.90;;;3.10;;
3054;SDS011;1537;52.018;8.542;2023-04-02T11:05:55;5.10;;;2.43;;
3054;SDS011;1537;52.018;8.542;2023-04-02T11:09:23;5.13;;;2.40;;
3054;SDS011;1537;52.018;8.542;2023-04-02T11:12:51;4.80;;;2.53;;
3054;SDS011;1537;52.018;8.542;2023-04-02T11:16:19;5.07;;;2.50;;
3054;SDS011;1537;52.018;8.542;2023-04-02T11:19:43;7.20;;;2.27;;
3054;SDS011;1537;52.018;8.542;2023-04-02T11:23:08;6.67;;;3.53;;
3054;SDS011;1537;52.018;8.542;2023-04-02T11:26:35;5.30;;;2.43;;
3054;SDS011;1537;52.018;8.542;2023-04-02T11:30:03;5.27;;;2.67;;
3054;SDS011;1537;52.018;8.542;2023-04-02T11:33:47;7.03;;;2.63;;
3054;SDS011;1537;52.018;8.542;2023-04-02T11:37:28;5.33;;;2.60;;
3054;SDS011;1537;52.018;8.542;2023-04-02T11:40:54;4.80;;;2.40;;
3054;SDS011;1537;52.018;8.542;2023-04-02T11:44:22;4.60;;;2.40;;
3054;SDS011;1537;52.018;8.542;2023-04-02T11:51:47;5.27;;;2.30;;
3054;SDS011;1537;52.018;8.542;2023-04-02T11:55:26;4.47;;;2.03;;
3054;SDS011;1537;52.018;8.542;2023-04-02T11:58:54;5.63;;;3.33;;
3054;SDS011;1537;52.018;8.542;2023-04-02T12:02:28;4.80;;;2.70;;
3054;SDS011;1537;52.018;8.542;2023-04-02T12:06:03;5.03;;;2.80;;
3054;SDS011;1537;52.018;8.542;2023-04-02T12:09:34;4.67;;;2.67;;
3054;SDS011;1537;52.018;8.542;2023-04-02T12:13:15;8.23;;;2.70;;
3054;SDS011;1537;52.018;8.542;2023-04-02T12:16:40;6.60;;;3.40;;
3054;SDS011;1537;52.018;8.542;2023-04-02T12:20:17;5.97;;;2.90;;
3054;SDS011;1537;52.018;8.542;2023-04-02T12:23:44;7.40;;;3.00;;
3054;SDS011;1537;52.018;8.542;2023-04-02T12:27:09;5.20;;;3.40;;
3054;SDS011;1537;52.018;8.542;2023-04-02T12:30:43;4.97;;;2.67;;
3054;SDS011;1537;52.018;8.542;2023-04-02T12:34:10;5.40;;;2.93;;
3054;SDS011;1537;52.018;8.542;2023-04-02T12:37:37;7.43;;;3.00;;
3054;SDS011;1537;52.018;8.542;2023-04-02T12:41:04;6.20;;;3.00;;
3054;SDS011;1537;52.018;8.542;2023-04-02T12:44:46;5.37;;;2.30;;
3054;SDS011;1537;52.018;8.542;2023-04-02T12:48:10;6.00;;;2.90;;
3054;SDS011;1537;52.018;8.542;2023-04-02T12:51:34;5.07;;;2.60;;
3054;SDS011;1537;52.018;8.542;2023-04-02T12:55:00;4.43;;;2.70;;
3054;SDS011;1537;52.018;8.542;2023-04-02T12:58:27;5.83;;;3.17;;
3054;SDS011;1537;52.018;8.542;2023-04-02T13:01:55;4.60;;;2.70;;
3054;SDS011;1537;52.018;8.542;2023-04-02T13:05:32;6.33;;;2.50;;
3054;SDS011;1537;52.018;8.542;2023-04-02T13:08:58;8.40;;;3.00;;
3054;SDS011;1537;52.018;8.542;2023-04-02T13:12:24;5.80;;;3.60;;
3054;SDS011;1537;52.018;8.542;2023-04-02T13:15:58;5.60;;;2.43;;
3054;SDS011;1537;52.018;8.542;2023-04-02T13:19:26;3.97;;;2.03;;
3054;SDS011;1537;52.018;8.542;2023-04-02T13:22:51;5.07;;;2.60;;
3054;SDS011;1537;52.018;8.542;2023-04-02T13:26:16;4.67;;;2.33;;
3054;SDS011;1537;52.018;8.542;2023-04-02T13:29:44;6.20;;;2.60;;
3054;SDS011;1537;52.018;8.542;2023-04-02T13:33:07;4.60;;;2.47;;
3054;SDS011;1537;52.018;8.542;2023-04-02T13:36:31;4.80;;;2.90;;
3054;SDS011;1537;52.018;8.542;2023-04-02T13:39:55;5.10;;;2.23;;
3054;SDS011;1537;52.018;8.542;2023-04-02T13:43:18;5.87;;;2.73;;
3054;SDS011;1537;52.018;8.542;2023-04-02T13:46:44;5.50;;;2.00;;
3054;SDS011;1537;52.018;8.542;2023-04-02T13:50:08;4.90;;;2.30;;
3054;SDS011;1537;52.018;8.542;2023-04-02T13:53:38;4.67;;;2.23;;
3054;SDS011;1537;52.018;8.542;2023-04-02T13:57:01;4.10;;;2.07;;
3054;SDS011;1537;52.018;8.542;2023-04-02T14:00:25;4.17;;;2.00;;
3054;SDS011;1537;52.018;8.542;2023-04-02T14:03:50;4.33;;;2.10;;
3054;SDS011;1537;52.018;8.542;2023-04-02T14:07:23;9.03;;;2.80;;
3054;SDS011;1537;52.018;8.542;2023-04-02T14:11:04;5.23;;;3.13;;
3054;SDS011;1537;52.018;8.542;2023-04-02T14:14:43;5.70;;;2.93;;
3054;SDS011;1537;52.018;8.542;2023-04-02T14:18:25;5.47;;;2.87;;
3054;SDS011;1537;52.018;8.542;2023-04-02T14:22:11;4.40;;;2.50;;
3054;SDS011;1537;52.018;8.542;2023-04-02T14:25:44;5.07;;;2.80;;
3054;SDS011;1537;52.018;8.542;2023-04-02T14:29:18;5.03;;;2.50;;
3054;SDS011;1537;52.018;8.542;2023-04-02T14:32:52;4.67;;;2.30;;
3054;SDS011;1537;52.018;8.542;2023-04-02T14:36:22;7.13;;;2.90;;
3054;SDS011;1537;52.018;8.542;2023-04-02T14:39:54;4.47;;;2.40;;
3054;SDS011;1537;52.018;8.542;2023-04-02T14:43:26;4.40;;;2.50;;
3054;SDS011;1537;52.018;8.542;2023-04-02T14:46:55;6.63;;;2.63;;
3054;SDS011;1537;52.018;8.542;2023-04-02T14:50:32;4.27;;;2.30;;
3054;SDS011;1537;52.018;8.542;2023-04-02T14:54:03;6.97;;;2.97;;
3054;SDS011;1537;52.018;8.542;2023-04-02T14:57:34;7.00;;;3.07;;
3054;SDS011;1537;52.018;8.542;2023-04-02T15:01:01;4.53;;;2.33;;
3054;SDS011;1537;52.018;8.542;2023-04-02T15:04:27;4.70;;;2.80;;
3054;SDS011;1537;52.018;8.542;2023-04-02T15:07:55;5.90;;;2.90;;
3054;SDS011;1537;52.018;8.542;2023-04-02T15:11:22;4.53;;;2.10;;
3054;SDS011;1537;52.018;8.542;2023-04-02T15:14:53;5.90;;;3.33;;
3054;SDS011;1537;52.018;8.542;2023-04-02T15:18:21;4.43;;;2.70;;
3054;SDS011;1537;52.018;8.542;2023-04-02T15:21:48;5.87;;;3.00;;
3054;SDS011;1537;52.018;8.542;2023-04-02T15:25:30;6.10;;;2.80;;
3054;SDS011;1537;52.018;8.542;2023-04-02T15:29:02;5.77;;;2.37;;
3054;SDS011;1537;52.018;8.542;2023-04-02T15:32:50;5.10;;;2.17;;
3054;SDS011;1537;52.018;8.542;2023-04-02T15:40:18;5.00;;;3.00;;
3054;SDS011;1537;52.018;8.542;2023-04-02T15:43:54;4.90;;;3.10;;
3054;SDS011;1537;52.018;8.542;2023-04-02T15:47:25;6.20;;;3.13;;
3054;SDS011;1537;52.018;8.542;2023-04-02T15:51:03;5.60;;;2.33;;
3054;SDS011;1537;52.018;8.542;2023-04-02T15:54:52;6.93;;;2.87;;
3054;SDS011;1537;52.018;8.542;2023-04-02T15:58:25;4.60;;;2.40;;
3054;SDS011;1537;52.018;8.542;2023-04-02T16:01:58;6.40;;;2.50;;
3054;SDS011;1537;52.018;8.542;2023-04-02T16:05:38;4.63;;;2.53;;
3054;SDS011;1537;52.018;8.542;2023-04-02T16:09:08;5.90;;;3.20;;
3054;SDS011;1537;52.018;8.542;2023-04-02T16:12:44;5.70;;;2.60;;
3054;SDS011;1537;52.018;8.542;2023-04-02T16:16:10;6.27;;;2.57;;
3054;SDS011;1537;52.018;8.542;2023-04-02T16:19:39;6.53;;;2.40;;
3054;SDS011;1537;52.018;8.542;2023-04-02T16:23:10;6.30;;;2.23;;
3054;SDS011;1537;52.018;8.542;2023-04-02T16:26:45;9.50;;;2.50;;
3054;SDS011;1537;52.018;8.542;2023-04-02T16:30:35;5.83;;;2.30;;
3054;SDS011;1537;52.018;8.542;2023-04-02T16:34:07;4.47;;;2.10;;
3054;SDS011;1537;52.018;8.542;2023-04-02T16:37:38;5.93;;;2.97;;
3054;SDS011;1537;52.018;8.542;2023-04-02T16:41:06;5.17;;;2.53;;
3054;SDS011;1537;52.018;8.542;2023-04-02T16:44:42;5.17;;;2.43;;
3054;SDS011;1537;52.018;8.542;2023-04-02T16:48:16;5.53;;;2.67;;
3054;SDS011;1537;52.018;8.542;2023-04-02T16:51:51;5.07;;;2.33;;
3054;SDS011;1537;52.018;8.542;2023-04-02T16:55:31;6.30;;;2.53;;
3054;SDS011;1537;52.018;8.542;2023-04-02T16:59:06;4.67;;;2.30;;
3054;SDS011;1537;52.018;8.542;2023-04-02T17:02:43;4.60;;;2.37;;
3054;SDS011;1537;52.018;8.542;2023-04-02T17:06:17;4.93;;;2.80;;
3054;SDS011;1537;52.018;8.542;2023-04-02T17:09:51;5.20;;;3.10;;
3054;SDS011;1537;52.018;8.542;2023-04-02T17:13:26;4.30;;;2.03;;
3054;SDS011;1537;52.018;8.542;2023-04-02T17:16:55;6.03;;;2.77;;
3054;SDS011;1537;52.018;8.542;2023-04-02T17:20:24;5.27;;;2.77;;
3054;SDS011;1537;52.018;8.542;2023-04-02T17:23:50;4.30;;;2.40;;
3054;SDS011;1537;52.018;8.542;2023-04-02T17:27:19;4.10;;;2.20;;
3054;SDS011;1537;52.018;8.542;2023-04-02T17:30:48;6.67;;;2.70;;
3054;SDS011;1537;52.018;8.542;2023-04-02T17:34:13;7.80;;;2.73;;
3054;SDS011;1537;52.018;8.542;2023-04-02T17:37:40;4.53;;;2.47;;
3054;SDS011;1537;52.018;8.542;2023-04-02T17:41:10;6.07;;;3.00;;
3054;SDS011;1537;52.018;8.542;2023-04-02T17:44:49;5.10;;;3.50;;
3054;SDS011;1537;52.018;8.542;2023-04-02T17:48:24;4.77;;;2.30;;
3054;SDS011;1537;52.018;8.542;2023-04-02T17:51:56;4.50;;;2.70;;
3054;SDS011;1537;52.018;8.542;2023-04-02T17:55:31;5.30;;;2.83;;
3054;SDS011;1537;52.018;8.542;2023-04-02T17:59:09;5.70;;;2.60;;
3054;SDS011;1537;52.018;8.542;2023-04-02T18:02:55;7.70;;;2.63;;
3054;SDS011;1537;52.018;8.542;2023-04-02T18:06:30;6.20;;;2.43;;
3054;SDS011;1537;52.018;8.542;2023-04-02T18:10:00;6.10;;;2.90;;
3054;SDS011;1537;52.018;8.542;2023-04-02T18:13:33;5.30;;;3.03;;
3054;SDS011;1537;52.018;8.542;2023-04-02T18:17:00;5.70;;;3.07;;
3054;SDS011;1537;52.018;8.542;2023-04-02T18:20:31;5.23;;;2.93;;
3054;SDS011;1537;52.018;8.542;2023-04-02T18:24:03;5.60;;;2.90;;
3054;SDS011;1537;52.018;8.542;2023-04-02T18:27:54;4.50;;;2.40;;
3054;SDS011;1537;52.018;8.542;2023-04-02T18:31:31;5.60;;;3.53;;
3054;SDS011;1537;52.018;8.542;2023-04-02T18:35:03;5.60;;;2.70;;
3054;SDS011;1537;52.018;8.542;2023-04-02T18:38:38;5.10;;;2.90;;
3054;SDS011;1537;52.018;8.542;2023-04-02T18:42:07;5.40;;;3.43;;
3054;SDS011;1537;52.018;8.542;2023-04-02T18:45:38;6.40;;;3.10;;
3054;SDS011;1537;52.018;8.542;2023-04-02T18:49:19;5.30;;;2.90;;
3054;SDS011;1537;52.018;8.542;2023-04-02T18:52:49;7.30;;;2.80;;
3054;SDS011;1537;52.018;8.542;2023-04-02T18:56:13;6.57;;;3.50;;
3054;SDS011;1537;52.018;8.542;2023-04-02T18:59:41;6.73;;;4.00;;
3054;SDS011;1537;52.018;8.542;2023-04-02T19:03:11;7.10;;;3.33;;
3054;SDS011;1537;52.018;8.542;2023-04-02T19:06:43;6.67;;;3.73;;
3054;SDS011;1537;52.018;8.542;2023-04-02T19:10:16;5.30;;;3.30;;
3054;SDS011;1537;52.018;8.542;2023-04-02T19:13:47;5.90;;;3.60;;
3054;SDS011;1537;52.018;8.542;2023-04-02T19:17:12;6.80;;;3.40;;
3054;SDS011;1537;52.018;8.542;2023-04-02T19:20:45;6.67;;;3.50;;
3054;SDS011;1537;52.018;8.542;2023-04-02T19:24:24;5.43;;;3.63;;
3054;SDS011;1537;52.018;8.542;2023-04-02T19:28:01;6.93;;;3.80;;
3054;SDS011;1537;52.018;8.542;2023-04-02T19:31:33;7.17;;;3.37;;
3054;SDS011;1537;52.018;8.542;2023-04-02T19:35:05;6.40;;;3.37;;
3054;SDS011;1537;52.018;8.542;2023-04-02T19:38:46;7.43;;;3.70;;
3054;SDS011;1537;52.018;8.542;2023-04-02T19:42:23;6.97;;;3.80;;
3054;SDS011;1537;52.018;8.542;2023-04-02T19:46:03;6.13;;;3.60;;
3054;SDS011;1537;52.018;8.542;2023-04-02T19:49:28;10.10;;;3.63;;
3054;SDS011;1537;52.018;8.542;2023-04-02T19:52:55;9.10;;;4.17;;
3054;SDS011;1537;52.018;8.542;2023-04-02T19:56:18;6.80;;;3.27;;
3054;SDS011;1537;52.018;8.542;2023-04-02T19:59:44;6.73;;;3.77;;
3054;SDS011;1537;52.018;8.542;2023-04-02T20:03:07;5.37;;;2.60;;
3054;SDS011;1537;52.018;8.542;2023-04-02T20:06:32;8.93;;;3.43;;
3054;SDS011;1537;52.018;8.542;2023-04-02T20:09:55;4.73;;;2.67;;
3054;SDS011;1537;52.018;8.542;2023-04-02T20:13:19;5.03;;;2.40;;
3054;SDS011;1537;52.018;8.542;2023-04-02T20:16:44;8.23;;;3.00;;
3054;SDS011;1537;52.018;8.542;2023-04-02T20:20:09;5.87;;;2.87;;
3054;SDS011;1537;52.018;8.542;2023-04-02T20:23:34;7.00;;;2.70;;
3054;SDS011;1537;52.018;8.542;2023-04-02T20:26:58;5.03;;;2.80;;
3054;SDS011;1537;52.018;8.542;2023-04-02T20:30:22;5.50;;;2.80;;
3054;SDS011;1537;52.018;8.542;2023-04-02T20:33:47;5.93;;;2.77;;
3054;SDS011;1537;52.018;8.542;2023-04-02T20:37:11;6.17;;;3.37;;
3054;SDS011;1537;52.018;8.542;2023-04-02T20:40:35;5.90;;;2.90;;
3054;SDS011;1537;52.018;8.542;2023-04-02T20:44:00;7.30;;;3.13;;
3054;SDS011;1537;52.018;8.542;2023-04-02T20:47:24;6.17;;;2.70;;
3054;SDS011;1537;52.018;8.542;2023-04-02T20:50:50;7.80;;;3.17;;
3054;SDS011;1537;52.018;8.542;2023-04-02T20:54:20;5.97;;;3.30;;
3054;SDS011;1537;52.018;8.542;2023-04-02T20:57:44;5.80;;;2.40;;
3054;SDS011;1537;52.018;8.542;2023-04-02T21:01:09;5.63;;;3.00;;
3054;SDS011;1537;52.018;8.542;2023-04-02T21:04:35;5.30;;;2.67;;
3054;SDS011;1537;52.018;8.542;2023-04-02T21:08:03;4.83;;;2.87;;
3054;SDS011;1537;52.018;8.542;2023-04-02T21:11:34;4.40;;;2.60;;
3054;SDS011;1537;52.018;8.542;2023-04-02T21:14:59;7.20;;;3.23;;
3054;SDS011;1537;52.018;8.542;2023-04-02T21:18:25;6.60;;;3.03;;
3054;SDS011;1537;52.018;8.542;2023-04-02T21:21:49;5.70;;;3.33;;
3054;SDS011;1537;52.018;8.542;2023-04-02T21:25:18;6.10;;;3.17;;
3054;SDS011;1537;52.018;8.542;2023-04-02T21:28:42;6.67;;;2.70;;
3054;SDS011;1537;52.018;8.542;2023-04-02T21:32:07;6.43;;;3.07;;
3054;SDS011;1537;52.018;8.542;2023-04-02T21:35:43;5.87;;;2.80;;
3054;SDS011;1537;52.018;8.542;2023-04-02T21:39:10;6.30;;;2.80;;
3054;SDS011;1537;52.018;8.542;2023-04-02T21:42:40;6.10;;;2.50;;
3054;SDS011;1537;52.018;8.542;2023-04-02T21:46:03;6.30;;;3.40;;
3054;SDS011;1537;52.018;8.542;2023-04-02T21:49:27;5.10;;;3.00;;
3054;SDS011;1537;52.018;8.542;2023-04-02T21:52:51;5.17;;;3.10;;
3054;SDS011;1537;52.018;8.542;2023-04-02T21:56:16;5.37;;;3.13;;
3054;SDS011;1537;52.018;8.542;2023-04-02T21:59:44;8.10;;;3.30;;